createdAt,value
2023-05-09T00:00:11.354Z,11.52
2023-05-09T00:03:00.131Z,11.32
2023-05-09T00:05:29.974Z,12.35
2023-05-09T00:07:58.653Z,12.45
2023-05-09T00:10:29.725Z,12.75
2023-05-09T00:12:59.981Z,12.77
2023-05-09T00:15:28.972Z,12.15
2023-05-09T00:17:57.632Z,12.63
2023-05-09T00:20:26.118Z,12.02
2023-05-09T00:22:55.492Z,13.38
2023-05-09T00:25:23.798Z,12.57
2023-05-09T00:27:53.892Z,12.05
2023-05-09T00:30:22.203Z,13.02
2023-05-09T00:32:50.874Z,12.35
2023-05-09T00:35:19.572Z,13.65
2023-05-09T00:37:48.189Z,13.02
2023-05-09T00:40:16.847Z,13.65
2023-05-09T00:42:46.107Z,13.32
2023-05-09T00:45:16.223Z,13.40
2023-05-09T00:47:45.087Z,12.20
2023-05-09T00:50:13.947Z,12.35
2023-05-09T00:52:42.597Z,12.13
2023-05-09T00:55:11.462Z,12.18
2023-05-09T00:57:40.204Z,12.75
2023-05-09T01:00:13.647Z,12.57
2023-05-09T01:02:45.018Z,11.82
2023-05-09T01:05:14.286Z,12.13
2023-05-09T01:07:47.029Z,12.20
2023-05-09T01:10:22.100Z,11.80
2023-05-09T01:12:57.399Z,12.13
2023-05-09T01:15:31.715Z,11.70
2023-05-09T01:18:06.738Z,11.88
2023-05-09T01:20:38.389Z,12.50
2023-05-09T01:23:30.311Z,10.55
2023-05-09T01:26:04.186Z,11.77
2023-05-09T01:28:57.059Z,11.75
2023-05-09T01:31:28.591Z,11.93
2023-05-09T01:34:00.146Z,12.60
2023-05-09T01:38:59.842Z,13.27
2023-05-09T01:41:32.311Z,13.00
2023-05-09T01:44:02.379Z,13.13
2023-05-09T01:46:32.536Z,11.50
2023-05-09T01:49:02.865Z,13.07
2023-05-09T01:51:32.726Z,12.07
2023-05-09T01:54:01.934Z,11.35
2023-05-09T01:56:31.178Z,11.93
2023-05-09T01:59:00.815Z,12.48
2023-05-09T02:01:30.229Z,11.77
2023-05-09T02:04:01.432Z,14.38
2023-05-09T02:06:31.258Z,16.63
2023-05-09T02:09:00.040Z,16.48
2023-05-09T02:11:28.365Z,13.73
2023-05-09T02:13:56.955Z,13.15
2023-05-09T02:16:26.039Z,13.27
2023-05-09T02:18:55.112Z,12.95
2023-05-09T02:21:26.333Z,12.45
2023-05-09T02:23:56.585Z,13.80
2023-05-09T02:26:26.062Z,13.90
2023-05-09T02:28:55.081Z,14.68
2023-05-09T02:31:25.957Z,14.82
2023-05-09T02:33:55.811Z,15.00
2023-05-09T02:36:26.362Z,12.15
2023-05-09T02:38:55.165Z,12.82
2023-05-09T02:41:23.631Z,13.30
2023-05-09T02:43:52.236Z,12.80
2023-05-09T02:46:20.846Z,12.30
2023-05-09T02:48:49.621Z,12.88
2023-05-09T02:51:17.920Z,13.20
2023-05-09T02:53:48.129Z,11.40
2023-05-09T02:56:16.840Z,10.77
2023-05-09T02:58:51.373Z,11.68
2023-05-09T03:01:20.046Z,11.05
2023-05-09T03:03:48.813Z,11.32
2023-05-09T03:06:17.258Z,11.55
2023-05-09T03:08:47.351Z,10.73
2023-05-09T03:11:15.886Z,10.55
2023-05-09T03:13:44.433Z,10.55
2023-05-09T03:16:15.083Z,10.77
2023-05-09T03:18:43.865Z,9.75
2023-05-09T03:21:12.777Z,11.10
2023-05-09T03:23:41.639Z,10.77
2023-05-09T03:26:11.676Z,10.50
2023-05-09T03:28:40.365Z,10.80
2023-05-09T03:31:09.791Z,10.80
2023-05-09T03:33:38.783Z,11.95
2023-05-09T03:36:07.732Z,12.10
2023-05-09T03:38:36.504Z,10.85
2023-05-09T03:41:05.334Z,10.27
2023-05-09T03:43:35.843Z,11.68
2023-05-09T03:46:04.058Z,11.70
2023-05-09T03:48:32.919Z,11.15
2023-05-09T03:51:01.275Z,11.57
2023-05-09T03:53:30.263Z,11.45
2023-05-09T03:55:58.598Z,11.63
2023-05-09T03:58:27.331Z,11.38
2023-05-09T04:00:57.663Z,12.93
2023-05-09T04:03:27.038Z,12.38
2023-05-09T04:05:55.999Z,12.05
2023-05-09T04:08:24.776Z,11.57
2023-05-09T04:10:53.315Z,11.98
2023-05-09T04:13:22.112Z,12.50
2023-05-09T04:15:51.064Z,10.70
2023-05-09T04:18:21.132Z,11.30
2023-05-09T04:20:50.273Z,11.13
2023-05-09T04:23:18.821Z,11.77
2023-05-09T04:25:47.466Z,11.02
2023-05-09T04:28:16.138Z,10.98
2023-05-09T04:30:44.784Z,10.95
2023-05-09T04:33:13.463Z,10.85
2023-05-09T04:35:43.117Z,10.90
2023-05-09T04:38:12.775Z,10.63
2023-05-09T04:40:41.073Z,11.32
2023-05-09T04:43:09.955Z,10.73
2023-05-09T04:45:38.288Z,11.63
2023-05-09T04:48:07.241Z,11.10
2023-05-09T04:50:36.524Z,11.35
2023-05-09T04:53:08.642Z,11.55
2023-05-09T04:55:36.951Z,11.35
2023-05-09T04:58:05.976Z,11.07
2023-05-09T05:00:34.600Z,10.95
2023-05-09T05:03:03.481Z,11.43
2023-05-09T05:05:33.806Z,11.30
2023-05-09T05:08:07.454Z,12.07
2023-05-09T05:10:35.871Z,11.50
2023-05-09T05:13:04.552Z,11.55
2023-05-09T05:15:33.087Z,10.98
2023-05-09T05:18:01.804Z,11.70
2023-05-09T05:20:30.604Z,11.35
2023-05-09T05:22:59.200Z,10.82
2023-05-09T05:25:28.809Z,9.90
2023-05-09T05:27:57.618Z,10.80
2023-05-09T05:30:25.838Z,11.40
2023-05-09T05:32:54.170Z,11.43
2023-05-09T05:35:23.742Z,10.75
2023-05-09T05:37:52.181Z,12.75
2023-05-09T05:40:21.482Z,12.20
2023-05-09T05:42:51.382Z,12.25
2023-05-09T05:45:20.282Z,10.32
2023-05-09T05:47:48.790Z,8.90
2023-05-09T05:50:17.924Z,9.00
2023-05-09T05:52:46.224Z,8.77
2023-05-09T05:55:15.438Z,8.88
2023-05-09T05:57:43.916Z,9.20
2023-05-09T06:00:15.612Z,9.40
2023-05-09T06:02:44.954Z,9.13
2023-05-09T06:05:14.281Z,8.68
2023-05-09T06:07:44.439Z,9.27
2023-05-09T06:10:16.123Z,8.43
2023-05-09T06:15:15.195Z,7.57
2023-05-09T06:17:43.750Z,8.17
2023-05-09T06:20:12.967Z,8.45
2023-05-09T06:22:42.005Z,9.45
2023-05-09T06:25:11.208Z,12.68
2023-05-09T06:27:39.800Z,8.30
2023-05-09T06:30:23.715Z,6.90
2023-05-09T06:32:55.231Z,6.75
2023-05-09T06:35:24.188Z,6.57
2023-05-09T06:37:52.457Z,5.55
2023-05-09T06:40:21.530Z,5.47
2023-05-09T06:42:50.201Z,4.40
2023-05-09T06:45:19.316Z,5.40
2023-05-09T06:47:48.078Z,5.45
2023-05-09T06:50:18.132Z,4.93
2023-05-09T06:52:46.447Z,5.40
2023-05-09T06:55:15.162Z,5.43
2023-05-09T06:57:43.616Z,4.63
2023-05-09T07:00:13.516Z,4.57
2023-05-09T07:02:42.406Z,4.30
2023-05-09T07:05:11.862Z,4.20
2023-05-09T07:07:41.653Z,5.45
2023-05-09T07:10:12.638Z,5.18
2023-05-09T07:12:42.029Z,4.18
2023-05-09T07:15:12.211Z,4.90
2023-05-09T07:17:40.984Z,4.25
2023-05-09T07:20:10.633Z,4.95
2023-05-09T07:22:39.270Z,4.63
2023-05-09T07:25:10.684Z,5.20
2023-05-09T07:27:39.461Z,5.90
2023-05-09T07:30:09.488Z,4.53
2023-05-09T07:32:37.959Z,4.72
2023-05-09T07:35:07.212Z,4.05
2023-05-09T07:37:36.310Z,4.88
2023-05-09T07:40:06.286Z,4.13
2023-05-09T07:42:37.216Z,4.47
2023-05-09T07:45:07.219Z,4.90
2023-05-09T07:47:35.897Z,5.07
2023-05-09T07:50:04.529Z,4.88
2023-05-09T07:52:32.992Z,4.90
2023-05-09T07:55:01.862Z,4.65
2023-05-09T07:57:30.169Z,4.97
2023-05-09T08:00:00.318Z,4.32
2023-05-09T08:02:28.618Z,4.75
2023-05-09T08:04:57.508Z,4.78
2023-05-09T08:07:26.340Z,3.85
2023-05-09T08:09:55.082Z,4.50
2023-05-09T08:12:23.885Z,5.32
2023-05-09T08:14:52.370Z,4.90
2023-05-09T08:17:25.074Z,4.32
2023-05-09T08:19:53.816Z,3.95
2023-05-09T08:22:22.131Z,3.92
2023-05-09T08:24:50.778Z,4.15
2023-05-09T08:27:19.009Z,4.45
2023-05-09T08:29:47.845Z,4.30
2023-05-09T08:32:16.493Z,4.40
2023-05-09T08:34:46.499Z,4.20
2023-05-09T08:37:15.407Z,3.30
2023-05-09T08:39:44.615Z,4.22
2023-05-09T08:42:16.019Z,4.45
2023-05-09T08:44:44.644Z,3.85
2023-05-09T08:47:13.176Z,3.47
2023-05-09T08:49:42.245Z,4.22
2023-05-09T08:52:12.358Z,4.00
2023-05-09T08:54:41.455Z,4.65
2023-05-09T08:57:13.181Z,4.07
2023-05-09T08:59:42.218Z,4.00
2023-05-09T09:02:13.962Z,3.72
2023-05-09T09:04:42.944Z,3.80
2023-05-09T09:07:13.520Z,3.78
2023-05-09T09:09:46.216Z,3.80
2023-05-09T09:12:16.942Z,2.85
2023-05-09T09:14:50.332Z,3.20
2023-05-09T09:17:21.845Z,2.78
2023-05-09T09:19:51.311Z,3.38
2023-05-09T09:22:21.508Z,2.80
2023-05-09T09:24:50.826Z,3.10
2023-05-09T09:27:19.571Z,2.90
2023-05-09T09:29:48.118Z,2.50
2023-05-09T09:32:18.615Z,2.75
2023-05-09T09:34:51.072Z,2.80
2023-05-09T09:37:27.158Z,2.42
2023-05-09T09:39:56.554Z,2.63
2023-05-09T09:42:24.921Z,3.30
2023-05-09T09:44:57.837Z,3.40
2023-05-09T09:47:32.773Z,3.22
2023-05-09T09:50:11.533Z,3.10
2023-05-09T09:52:45.877Z,2.78
2023-05-09T09:55:15.007Z,3.65
2023-05-09T09:57:45.699Z,3.00
2023-05-09T10:02:52.196Z,2.45
2023-05-09T10:05:25.901Z,2.58
2023-05-09T10:07:59.633Z,2.20
2023-05-09T10:10:29.446Z,2.20
2023-05-09T10:12:58.865Z,2.58
2023-05-09T10:15:30.131Z,2.60
2023-05-09T10:18:04.694Z,3.17
2023-05-09T10:20:35.954Z,3.17
2023-05-09T10:23:05.857Z,2.53
2023-05-09T10:25:40.718Z,2.67
2023-05-09T10:28:12.802Z,2.50
2023-05-09T10:30:50.530Z,2.60
2023-05-09T10:33:22.808Z,2.95
2023-05-09T10:35:52.105Z,2.90
2023-05-09T10:38:24.783Z,2.83
2023-05-09T10:40:55.000Z,2.65
2023-05-09T10:43:25.429Z,2.90
2023-05-09T10:45:54.167Z,2.60
2023-05-09T10:48:24.384Z,2.95
2023-05-09T10:50:53.934Z,2.70
2023-05-09T10:53:24.524Z,2.30
2023-05-09T10:55:55.746Z,2.80
2023-05-09T10:58:27.179Z,2.20
2023-05-09T11:00:57.572Z,2.60
2023-05-09T11:03:26.273Z,2.65
2023-05-09T11:05:56.510Z,2.30
2023-05-09T11:08:27.597Z,2.40
2023-05-09T11:10:57.228Z,2.63
2023-05-09T11:13:27.573Z,2.28
2023-05-09T11:16:21.070Z,1.83
2023-05-09T11:18:53.965Z,2.00
2023-05-09T11:21:23.018Z,1.67
2023-05-09T11:23:55.259Z,1.88
2023-05-09T11:26:31.059Z,1.60
2023-05-09T11:29:01.183Z,1.67
2023-05-09T11:31:29.962Z,1.53
2023-05-09T11:34:05.034Z,2.00
2023-05-09T11:36:34.076Z,1.80
2023-05-09T11:39:06.469Z,3.88
2023-05-09T11:41:43.012Z,2.00
2023-05-09T11:44:16.662Z,2.30
2023-05-09T11:46:45.903Z,2.28
2023-05-09T11:49:14.614Z,2.25
2023-05-09T11:51:43.273Z,2.80
2023-05-09T11:54:15.109Z,2.00
2023-05-09T11:56:44.298Z,2.40
2023-05-09T11:59:14.817Z,2.17
2023-05-09T12:01:43.770Z,2.40
2023-05-09T12:04:12.273Z,1.80
2023-05-09T12:06:41.182Z,2.13
2023-05-09T12:09:12.268Z,2.28
2023-05-09T12:14:09.909Z,2.10
2023-05-09T12:16:46.741Z,3.90
2023-05-09T12:19:15.430Z,2.63
2023-05-09T12:21:45.255Z,2.00
2023-05-09T12:24:15.411Z,1.83
2023-05-09T12:26:44.202Z,1.70
2023-05-09T12:29:12.928Z,2.13
2023-05-09T12:31:42.749Z,1.75
2023-05-09T12:34:11.324Z,1.50
2023-05-09T12:36:40.463Z,1.80
2023-05-09T12:39:12.545Z,1.85
2023-05-09T12:42:00.440Z,1.40
2023-05-09T12:44:31.604Z,1.83
2023-05-09T12:47:01.938Z,1.88
2023-05-09T12:49:31.613Z,1.80
2023-05-09T12:52:03.702Z,1.80
2023-05-09T12:54:33.160Z,1.70
2023-05-09T12:57:05.704Z,2.00
2023-05-09T12:59:34.478Z,2.00
2023-05-09T13:02:03.214Z,2.17
2023-05-09T13:04:31.541Z,1.95
2023-05-09T13:07:00.543Z,2.08
2023-05-09T13:09:30.473Z,2.15
2023-05-09T13:11:59.525Z,2.72
2023-05-09T13:14:29.188Z,1.92
2023-05-09T13:16:57.847Z,2.40
2023-05-09T13:19:27.440Z,2.05
2023-05-09T13:21:56.489Z,2.22
2023-05-09T13:24:24.978Z,1.90
2023-05-09T13:26:53.780Z,1.90
2023-05-09T13:29:22.128Z,1.90
2023-05-09T13:31:52.333Z,1.98
2023-05-09T13:34:23.800Z,1.85
2023-05-09T13:36:52.404Z,1.80
2023-05-09T13:39:20.989Z,2.08
2023-05-09T13:41:51.374Z,1.50
2023-05-09T13:44:19.816Z,2.20
2023-05-09T13:46:48.507Z,1.58
2023-05-09T13:49:20.052Z,1.60
2023-05-09T13:51:48.710Z,2.00
2023-05-09T13:54:19.988Z,1.75
2023-05-09T13:56:48.688Z,1.60
2023-05-09T13:59:17.083Z,1.95
2023-05-09T14:01:46.099Z,1.95
2023-05-09T14:04:14.590Z,1.77
2023-05-09T14:06:48.338Z,1.80
2023-05-09T14:09:17.322Z,1.80
2023-05-09T14:11:46.250Z,1.65
2023-05-09T14:14:14.796Z,2.08
2023-05-09T14:16:44.895Z,1.67
2023-05-09T14:19:15.540Z,1.58
2023-05-09T14:21:46.917Z,1.80
2023-05-09T14:24:18.861Z,1.60
2023-05-09T14:26:47.748Z,1.65
2023-05-09T14:29:18.262Z,1.80
2023-05-09T14:32:12.961Z,1.98
2023-05-09T14:34:42.760Z,1.92
2023-05-09T14:37:14.686Z,1.73
2023-05-09T14:39:47.237Z,1.80
2023-05-09T14:42:16.791Z,1.90
2023-05-09T14:44:48.019Z,1.65
2023-05-09T14:50:00.426Z,1.60
2023-05-09T14:52:35.830Z,1.55
2023-05-09T14:55:07.760Z,1.60
2023-05-09T14:57:39.056Z,1.80
2023-05-09T15:00:21.093Z,1.70
2023-05-09T15:03:01.059Z,1.80
2023-05-09T15:05:40.952Z,1.73
2023-05-09T15:08:11.287Z,1.88
2023-05-09T15:10:41.931Z,1.90
2023-05-09T15:13:13.821Z,2.00
2023-05-09T15:15:45.044Z,1.88
2023-05-09T15:20:44.466Z,1.45
2023-05-09T15:23:18.885Z,1.60
2023-05-09T15:25:49.179Z,1.63
2023-05-09T15:28:17.858Z,1.60
2023-05-09T15:30:58.296Z,1.92
2023-05-09T15:33:29.730Z,1.83
2023-05-09T15:36:03.965Z,1.80
2023-05-09T15:38:38.305Z,2.20
2023-05-09T15:41:17.174Z,1.80
2023-05-09T15:43:45.762Z,1.60
2023-05-09T15:46:18.005Z,1.35
2023-05-09T15:48:49.875Z,1.52
2023-05-09T15:51:18.329Z,1.50
2023-05-09T15:53:57.970Z,2.00
2023-05-09T15:56:29.667Z,1.90
2023-05-09T15:59:04.922Z,1.45
2023-05-09T16:01:35.522Z,1.65
2023-05-09T16:04:07.707Z,2.17
2023-05-09T16:06:36.614Z,1.83
2023-05-09T16:09:06.876Z,1.90
2023-05-09T16:11:35.315Z,1.60
2023-05-09T16:14:05.288Z,1.95
2023-05-09T16:16:33.686Z,1.60
2023-05-09T16:19:03.809Z,1.80
2023-05-09T16:21:33.162Z,1.92
2023-05-09T16:24:03.288Z,1.90
2023-05-09T16:26:33.263Z,1.40
2023-05-09T16:29:02.940Z,1.70
2023-05-09T16:31:33.298Z,1.58
2023-05-09T16:34:03.436Z,1.73
2023-05-09T16:36:32.969Z,1.70
2023-05-09T16:39:02.002Z,1.50
2023-05-09T16:41:30.187Z,1.60
2023-05-09T16:44:00.336Z,1.30
2023-05-09T16:46:28.962Z,1.70
2023-05-09T16:48:57.766Z,2.00
2023-05-09T16:51:25.997Z,1.80
2023-05-09T16:53:54.667Z,1.65
2023-05-09T16:56:23.606Z,2.15
2023-05-09T16:58:52.422Z,1.70
2023-05-09T17:01:22.516Z,1.70
2023-05-09T17:03:51.578Z,2.05
2023-05-09T17:06:20.158Z,1.95
2023-05-09T17:08:48.860Z,2.00
2023-05-09T17:11:17.429Z,2.10
2023-05-09T17:13:45.931Z,2.13
2023-05-09T17:16:14.238Z,2.00
2023-05-09T17:18:46.236Z,2.25
2023-05-09T17:21:15.691Z,2.22
2023-05-09T17:23:44.595Z,2.10
2023-05-09T17:26:12.771Z,2.00
2023-05-09T17:28:41.597Z,1.98
2023-05-09T17:31:10.253Z,2.05
2023-05-09T17:33:39.960Z,1.95
2023-05-09T17:36:10.106Z,2.28
2023-05-09T17:38:38.569Z,1.48
2023-05-09T17:41:07.243Z,1.90
2023-05-09T17:43:36.028Z,2.08
2023-05-09T17:46:04.859Z,2.08
2023-05-09T17:48:33.544Z,2.22
2023-05-09T17:51:01.944Z,2.17
2023-05-09T17:53:31.839Z,2.10
2023-05-09T17:56:00.145Z,2.17
2023-05-09T17:58:28.999Z,1.92
2023-05-09T18:00:59.006Z,2.05
2023-05-09T18:03:28.700Z,2.00
2023-05-09T18:05:57.709Z,2.13
2023-05-09T18:08:26.500Z,2.38
2023-05-09T18:10:57.320Z,2.47
2023-05-09T18:13:26.002Z,2.75
2023-05-09T18:15:55.158Z,2.47
2023-05-09T18:18:23.812Z,2.70
2023-05-09T18:20:52.153Z,2.55
2023-05-09T18:23:21.908Z,2.25
2023-05-09T18:25:50.546Z,2.80
2023-05-09T18:28:24.737Z,2.83
2023-05-09T18:30:54.633Z,2.22
2023-05-09T18:33:24.509Z,2.58
2023-05-09T18:35:54.145Z,2.30
2023-05-09T18:38:23.032Z,2.53
2023-05-09T18:40:52.285Z,2.60
2023-05-09T18:43:22.578Z,2.45
2023-05-09T18:45:52.004Z,2.63
2023-05-09T18:48:20.968Z,2.92
2023-05-09T18:50:52.522Z,2.30
2023-05-09T18:53:21.925Z,2.92
2023-05-09T18:55:50.922Z,2.90
2023-05-09T18:58:21.280Z,3.42
2023-05-09T19:00:52.990Z,2.83
2023-05-09T19:03:23.545Z,3.47
2023-05-09T19:05:52.078Z,3.03
2023-05-09T19:08:20.804Z,2.80
2023-05-09T19:10:49.367Z,3.00
2023-05-09T19:13:18.233Z,3.25
2023-05-09T19:15:48.328Z,3.53
2023-05-09T19:18:18.676Z,3.20
2023-05-09T19:20:50.428Z,3.67
2023-05-09T19:23:20.906Z,3.90
2023-05-09T19:25:50.064Z,3.60
2023-05-09T19:28:19.442Z,3.50
2023-05-09T19:30:48.130Z,3.92
2023-05-09T19:33:19.822Z,4.20
2023-05-09T19:38:17.171Z,4.60
2023-05-09T19:40:45.689Z,3.20
2023-05-09T19:43:14.433Z,4.47
2023-05-09T19:45:43.109Z,3.83
2023-05-09T19:48:15.607Z,3.83
2023-05-09T19:50:46.722Z,3.90
2023-05-09T19:55:48.023Z,4.95
2023-05-09T19:58:17.793Z,3.45
2023-05-09T20:00:46.324Z,3.78
2023-05-09T20:03:15.382Z,4.03
2023-05-09T20:05:57.630Z,4.40
2023-05-09T20:08:26.717Z,4.55
2023-05-09T20:10:55.821Z,4.13
2023-05-09T20:13:24.541Z,4.28
2023-05-09T20:15:53.007Z,4.45
2023-05-09T20:18:22.026Z,3.67
2023-05-09T20:20:51.795Z,4.05
2023-05-09T20:23:20.393Z,6.28
2023-05-09T20:25:48.700Z,5.18
2023-05-09T20:28:20.355Z,3.80
2023-05-09T20:30:48.949Z,3.38
2023-05-09T20:33:17.858Z,3.63
2023-05-09T20:35:46.278Z,3.20
2023-05-09T20:38:16.456Z,3.05
2023-05-09T20:40:45.365Z,3.58
2023-05-09T20:43:13.918Z,3.28
2023-05-09T20:45:43.135Z,3.40
2023-05-09T20:48:12.513Z,3.40
2023-05-09T20:50:41.096Z,3.67
2023-05-09T20:53:09.776Z,3.47
2023-05-09T20:55:39.421Z,3.83
2023-05-09T20:58:08.043Z,3.55
2023-05-09T21:00:36.328Z,3.35
2023-05-09T21:03:05.719Z,4.13
2023-05-09T21:05:34.152Z,4.80
2023-05-09T21:08:02.679Z,4.03
2023-05-09T21:10:31.099Z,4.40
2023-05-09T21:13:01.193Z,4.10
2023-05-09T21:15:29.601Z,3.85
2023-05-09T21:17:58.439Z,4.00
2023-05-09T21:20:26.865Z,3.53
2023-05-09T21:22:55.386Z,4.22
2023-05-09T21:25:23.786Z,4.00
2023-05-09T21:27:52.522Z,3.78
2023-05-09T21:30:22.383Z,3.70
2023-05-09T21:32:52.282Z,3.65
2023-05-09T21:35:21.175Z,4.13
2023-05-09T21:37:50.746Z,3.80
2023-05-09T21:40:19.178Z,3.80
2023-05-09T21:42:48.487Z,4.00
2023-05-09T21:45:18.097Z,3.75
2023-05-09T21:47:48.958Z,4.28
2023-05-09T21:50:17.610Z,3.97
2023-05-09T21:52:46.493Z,4.28
2023-05-09T21:55:16.499Z,4.75
2023-05-09T21:57:45.622Z,4.10
2023-05-09T22:00:17.273Z,4.22
2023-05-09T22:02:48.007Z,4.38
2023-05-09T22:05:19.323Z,4.05
2023-05-09T22:10:17.087Z,4.90
2023-05-09T22:12:46.133Z,4.25
2023-05-09T22:15:15.156Z,4.60
2023-05-09T22:17:44.083Z,4.18
2023-05-09T22:20:14.824Z,4.28
2023-05-09T22:22:50.370Z,4.78
2023-05-09T22:25:20.000Z,4.72
2023-05-09T22:27:48.958Z,4.40
2023-05-09T22:30:17.332Z,4.30
2023-05-09T22:32:46.181Z,4.47
2023-05-09T22:35:16.049Z,4.65
2023-05-09T22:37:44.568Z,4.70
2023-05-09T22:40:13.570Z,4.35
2023-05-09T22:42:43.073Z,4.95
2023-05-09T22:45:12.439Z,4.43
2023-05-09T22:47:41.261Z,4.78
2023-05-09T22:50:10.734Z,5.10
2023-05-09T22:52:40.993Z,4.68
2023-05-09T22:55:10.212Z,4.60
2023-05-09T22:57:38.829Z,5.28
2023-05-09T23:00:08.829Z,5.05
2023-05-09T23:02:37.677Z,4.50
2023-05-09T23:05:06.604Z,5.05
2023-05-09T23:07:35.269Z,5.03
2023-05-09T23:10:05.507Z,4.90
2023-05-09T23:12:34.398Z,5.32
2023-05-09T23:15:02.657Z,5.10
2023-05-09T23:17:31.854Z,4.47
2023-05-09T23:20:01.767Z,4.63
2023-05-09T23:22:30.302Z,5.80
2023-05-09T23:25:00.047Z,4.93
2023-05-09T23:27:31.352Z,5.03
2023-05-09T23:32:28.479Z,5.93
2023-05-09T23:34:56.980Z,5.40
2023-05-09T23:37:25.456Z,4.97
2023-05-09T23:39:54.034Z,5.70
2023-05-09T23:42:22.902Z,5.20
2023-05-09T23:44:52.418Z,5.45
2023-05-09T23:47:21.125Z,5.18
2023-05-09T23:49:49.573Z,4.43
2023-05-09T23:52:18.171Z,4.88
2023-05-09T23:54:46.605Z,5.15
2023-05-09T23:57:15.299Z,4.72
2023-05-09T23:59:43.681Z,5.13
